createdAt,value
2022-08-05T00:00:35.600Z,76.91
2022-08-05T00:01:35.553Z,77.11
2022-08-05T00:02:34.822Z,77.01
2022-08-05T00:03:34.725Z,76.81
2022-08-05T00:04:34.677Z,76.91
2022-08-05T00:06:01.822Z,76.62
2022-08-05T00:06:35.947Z,76.72
2022-08-05T00:08:00.878Z,76.72
2022-08-05T00:08:36.133Z,76.81
2022-08-05T00:09:34.451Z,76.81
2022-08-05T00:10:34.405Z,76.91
2022-08-05T00:11:35.058Z,77.01
2022-08-05T00:12:34.315Z,77.39
2022-08-05T00:13:38.892Z,77.11
2022-08-05T00:14:34.224Z,77.11
2022-08-05T00:15:54.913Z,77.29
2022-08-05T00:16:35.525Z,77.29
2022-08-05T00:17:34.089Z,77.39
2022-08-05T00:18:34.042Z,77.16
2022-08-05T00:19:45.509Z,77.29
2022-08-05T00:20:33.952Z,77.26
2022-08-05T00:21:36.037Z,77.11
2022-08-05T00:22:33.861Z,77.16
2022-08-05T00:23:46.345Z,77.45
2022-08-05T00:24:33.879Z,77.39
2022-08-05T00:25:45.352Z,78.07
2022-08-05T00:26:33.684Z,78.03
2022-08-05T00:27:36.109Z,77.98
2022-08-05T00:28:33.591Z,77.75
2022-08-05T00:29:37.950Z,77.36
2022-08-05T00:30:33.501Z,77.65
2022-08-05T00:31:54.008Z,77.75
2022-08-05T00:32:33.409Z,77.84
2022-08-05T00:34:54.150Z,77.69
2022-08-05T00:34:56.987Z,77.45
2022-08-05T00:35:33.576Z,77.45
2022-08-05T00:37:12.873Z,77.55
2022-08-05T00:37:51.222Z,77.84
2022-08-05T00:38:33.892Z,77.55
2022-08-05T00:39:41.565Z,77.36
2022-08-05T00:40:33.045Z,77.36
2022-08-05T00:41:55.152Z,77.55
2022-08-05T00:42:32.996Z,77.45
2022-08-05T00:43:46.974Z,77.36
2022-08-05T00:44:32.864Z,77.36
2022-08-05T00:45:38.951Z,77.75
2022-08-05T00:46:42.815Z,77.55
2022-08-05T00:47:56.640Z,77.36
2022-08-05T00:48:32.684Z,77.75
2022-08-05T00:49:51.301Z,77.84
2022-08-05T00:50:32.592Z,77.75
2022-08-05T00:51:51.423Z,77.84
2022-08-05T00:52:32.500Z,78.33
2022-08-05T00:54:00.643Z,78.42
2022-08-05T00:54:32.411Z,78.23
2022-08-05T00:55:34.251Z,78.13
2022-08-05T00:56:32.323Z,78.42
2022-08-05T00:57:55.204Z,78.33
2022-08-05T00:58:32.227Z,78.33
2022-08-05T00:59:34.491Z,78.52
2022-08-05T01:00:32.229Z,78.52
2022-08-05T01:01:48.257Z,78.61
2022-08-05T01:02:32.045Z,78.52
2022-08-05T01:03:34.062Z,78.71
2022-08-05T01:04:31.955Z,78.71
2022-08-05T01:05:31.909Z,78.23
2022-08-05T01:06:32.633Z,78.52
2022-08-05T01:07:31.984Z,78.23
2022-08-05T01:08:43.286Z,78.23
2022-08-05T01:09:31.731Z,78.52
2022-08-05T01:10:31.681Z,78.71
2022-08-05T01:11:36.689Z,78.42
2022-08-05T01:12:31.588Z,78.81
2022-08-05T01:13:59.062Z,78.71
2022-08-05T01:14:31.499Z,78.52
2022-08-05T01:15:35.445Z,78.71
2022-08-05T01:16:31.407Z,78.71
2022-08-05T01:17:31.363Z,78.71
2022-08-05T01:18:31.317Z,78.52
2022-08-05T01:19:56.508Z,78.61
2022-08-05T01:20:31.253Z,78.61
2022-08-05T01:21:38.184Z,78.71
2022-08-05T01:22:31.855Z,78.61
2022-08-05T01:23:34.812Z,78.61
2022-08-05T01:24:31.042Z,78.52
2022-08-05T01:25:41.148Z,78.71
2022-08-05T01:26:30.951Z,78.61
2022-08-05T01:27:32.897Z,78.67
2022-08-05T01:28:30.860Z,78.58
2022-08-05T01:29:30.828Z,78.87
2022-08-05T01:30:34.130Z,78.67
2022-08-05T01:31:30.728Z,78.61
2022-08-05T01:32:30.682Z,78.77
2022-08-05T01:33:35.383Z,78.67
2022-08-05T01:34:30.586Z,78.61
2022-08-05T01:35:52.061Z,79.25
2022-08-05T01:36:30.493Z,79.25
2022-08-05T01:37:30.807Z,79.35
2022-08-05T01:38:30.403Z,79.06
2022-08-05T01:39:46.251Z,79.35
2022-08-05T01:40:30.314Z,78.77
2022-08-05T01:41:30.267Z,78.97
2022-08-05T01:42:30.221Z,79.06
2022-08-05T01:43:30.177Z,78.97
2022-08-05T01:44:34.470Z,79.06
2022-08-05T01:45:34.976Z,78.87
2022-08-05T01:46:42.208Z,78.87
2022-08-05T01:47:30.525Z,79.06
2022-08-05T01:48:29.945Z,78.97
2022-08-05T01:50:00.100Z,79.45
2022-08-05T01:50:29.852Z,79.55
2022-08-05T01:51:30.071Z,79.93
2022-08-05T01:52:29.761Z,79.74
2022-08-05T01:53:56.915Z,79.55
2022-08-05T01:54:29.672Z,79.64
2022-08-05T01:55:29.626Z,79.55
2022-08-05T01:58:10.467Z,79.55
2022-08-05T01:58:13.784Z,79.45
2022-08-05T01:58:44.801Z,79.45
2022-08-05T01:59:29.444Z,80.13
2022-08-05T02:00:29.985Z,79.55
2022-08-05T02:01:29.379Z,79.35
2022-08-05T02:02:29.364Z,80.22
2022-08-05T02:03:32.014Z,80.03
2022-08-05T02:04:29.969Z,79.74
2022-08-05T02:05:29.181Z,79.74
2022-08-05T02:06:37.314Z,79.35
2022-08-05T02:07:30.375Z,79.64
2022-08-05T02:08:31.144Z,79.55
2022-08-05T02:09:28.985Z,79.74
2022-08-05T02:10:28.937Z,79.64
2022-08-05T02:11:33.565Z,79.35
2022-08-05T02:12:28.845Z,78.87
2022-08-05T02:13:28.802Z,78.48
2022-08-05T02:14:28.755Z,78.77
2022-08-05T02:15:33.242Z,78.48
2022-08-05T02:16:28.662Z,78.87
2022-08-05T02:18:28.019Z,78.48
2022-08-05T02:18:34.507Z,78.58
2022-08-05T02:19:28.528Z,78.67
2022-08-05T02:20:28.479Z,78.09
2022-08-05T02:21:28.432Z,78.19
2022-08-05T02:22:28.387Z,78.00
2022-08-05T02:23:28.346Z,77.32
2022-08-05T02:24:28.296Z,77.51
2022-08-05T02:25:32.986Z,77.61
2022-08-05T02:26:28.201Z,78.00
2022-08-05T02:27:30.095Z,77.70
2022-08-05T02:28:29.124Z,77.70
2022-08-05T02:29:58.810Z,77.70
2022-08-05T02:30:28.020Z,77.80
2022-08-05T02:31:28.414Z,77.61
2022-08-05T02:32:30.573Z,77.70
2022-08-05T02:33:38.465Z,77.70
2022-08-05T02:34:28.077Z,77.90
2022-08-05T02:35:33.351Z,77.51
2022-08-05T02:36:27.918Z,77.42
2022-08-05T02:37:27.703Z,77.61
2022-08-05T02:38:27.655Z,77.61
2022-08-05T02:39:27.642Z,77.61
2022-08-05T02:40:27.664Z,78.00
2022-08-05T02:41:28.772Z,78.29
2022-08-05T02:42:31.911Z,78.19
2022-08-05T02:43:27.423Z,78.38
2022-08-05T02:44:27.378Z,78.58
2022-08-05T02:45:28.428Z,78.67
2022-08-05T02:46:27.602Z,78.58
2022-08-05T02:47:58.420Z,78.77
2022-08-05T02:48:29.180Z,78.58
2022-08-05T02:49:27.148Z,78.48
2022-08-05T02:50:27.102Z,78.87
2022-08-05T02:51:28.403Z,78.67
2022-08-05T02:52:30.387Z,78.97
2022-08-05T02:53:26.963Z,79.06
2022-08-05T02:54:36.318Z,79.16
2022-08-05T02:55:53.896Z,78.87
2022-08-05T02:56:26.826Z,79.06
2022-08-05T02:58:12.350Z,79.06
2022-08-05T02:58:27.269Z,79.16
2022-08-05T02:59:26.999Z,79.64
2022-08-05T03:00:26.997Z,79.55
2022-08-05T03:01:27.194Z,79.64
2022-08-05T03:02:27.579Z,79.41
2022-08-05T03:03:26.504Z,79.22
2022-08-05T03:04:26.459Z,79.70
2022-08-05T03:06:55.042Z,80.09
2022-08-05T03:06:56.473Z,80.19
2022-08-05T03:07:59.449Z,79.70
2022-08-05T03:08:29.878Z,79.70
2022-08-05T03:09:27.237Z,79.99
2022-08-05T03:10:26.182Z,79.80
2022-08-05T03:11:56.607Z,79.90
2022-08-05T03:12:26.091Z,79.50
2022-08-05T03:13:27.531Z,80.09
2022-08-05T03:14:26.249Z,79.80
2022-08-05T03:15:25.951Z,79.50
2022-08-05T03:16:25.908Z,79.60
2022-08-05T03:17:26.344Z,79.60
2022-08-05T03:18:29.976Z,79.60
2022-08-05T03:19:34.096Z,80.09
2022-08-05T03:20:25.722Z,79.80
2022-08-05T03:21:28.721Z,79.99
2022-08-05T03:22:32.273Z,80.19
2022-08-05T03:23:25.581Z,79.90
2022-08-05T03:24:29.341Z,79.80
2022-08-05T03:25:32.629Z,80.28
2022-08-05T03:26:31.420Z,80.09
2022-08-05T03:27:29.506Z,80.19
2022-08-05T03:28:25.354Z,80.38
2022-08-05T03:29:45.200Z,80.28
2022-08-05T03:30:30.247Z,80.38
2022-08-05T03:31:41.472Z,80.19
2022-08-05T03:32:30.723Z,80.28
2022-08-05T03:33:25.122Z,80.67
2022-08-05T03:34:25.075Z,80.09
2022-08-05T03:35:25.031Z,80.28
2022-08-05T03:36:30.112Z,80.47
2022-08-05T03:37:25.214Z,80.47
2022-08-05T03:38:33.405Z,80.77
2022-08-05T03:39:27.286Z,80.77
2022-08-05T03:40:31.998Z,80.77
2022-08-05T03:41:24.755Z,80.57
2022-08-05T03:42:27.175Z,80.77
2022-08-05T03:44:10.042Z,80.63
2022-08-05T03:44:24.613Z,80.67
2022-08-05T03:45:24.585Z,80.67
2022-08-05T03:46:26.806Z,80.63
2022-08-05T03:47:24.923Z,81.21
2022-08-05T03:48:24.429Z,80.96
2022-08-05T03:49:31.197Z,81.05
2022-08-05T03:50:24.337Z,80.96
2022-08-05T03:52:39.069Z,80.63
2022-08-05T03:52:48.779Z,80.82
2022-08-05T03:55:34.462Z,81.02
2022-08-05T03:56:04.361Z,80.87
2022-08-05T03:56:05.627Z,80.73
2022-08-05T03:56:33.128Z,80.82
2022-08-05T03:57:29.233Z,80.63
2022-08-05T03:58:29.123Z,81.02
2022-08-05T03:59:24.581Z,80.63
2022-08-05T04:00:23.877Z,80.82
2022-08-05T04:01:23.858Z,81.25
2022-08-05T04:02:37.755Z,80.54
2022-08-05T04:03:26.904Z,81.45
2022-08-05T04:04:23.689Z,81.40
2022-08-05T04:05:23.641Z,81.30
2022-08-05T04:06:23.595Z,81.50
2022-08-05T04:07:24.927Z,81.05
2022-08-05T04:08:35.301Z,81.21
2022-08-05T04:09:25.971Z,81.12
2022-08-05T04:10:23.411Z,81.50
2022-08-05T04:11:23.372Z,81.50
2022-08-05T04:12:24.532Z,81.50
2022-08-05T04:13:23.270Z,81.40
2022-08-05T04:14:29.492Z,81.40
2022-08-05T04:15:24.557Z,81.12
2022-08-05T04:16:24.319Z,81.02
2022-08-05T04:17:23.247Z,81.12
2022-08-05T04:18:25.403Z,81.50
2022-08-05T04:19:23.361Z,81.60
2022-08-05T04:20:23.329Z,81.50
2022-08-05T04:22:04.997Z,81.70
2022-08-05T04:22:22.856Z,81.50
2022-08-05T04:24:04.909Z,81.60
2022-08-05T04:24:22.918Z,81.79
2022-08-05T04:25:38.522Z,81.89
2022-08-05T04:26:22.671Z,81.60
2022-08-05T04:27:33.059Z,81.70
2022-08-05T04:28:30.719Z,81.70
2022-08-05T04:29:22.529Z,81.60
2022-08-05T04:30:22.484Z,81.70
2022-08-05T04:31:22.441Z,81.50
2022-08-05T04:32:31.023Z,81.50
2022-08-05T04:34:18.673Z,81.50
2022-08-05T04:34:32.498Z,81.40
2022-08-05T04:35:22.252Z,81.50
2022-08-05T04:36:44.763Z,82.08
2022-08-05T04:37:23.016Z,82.08
2022-08-05T04:38:22.115Z,81.79
2022-08-05T04:39:22.140Z,81.79
2022-08-05T04:40:22.020Z,82.76
2022-08-05T04:41:21.972Z,82.37
2022-08-05T04:42:25.376Z,82.37
2022-08-05T04:43:22.226Z,82.47
2022-08-05T04:44:29.467Z,82.86
2022-08-05T04:45:23.003Z,82.66
2022-08-05T04:46:28.039Z,82.86
2022-08-05T04:47:22.089Z,83.05
2022-08-05T04:48:28.159Z,82.86
2022-08-05T04:49:24.881Z,82.86
2022-08-05T04:50:37.399Z,82.86
2022-08-05T04:51:21.516Z,82.57
2022-08-05T04:52:21.463Z,82.37
2022-08-05T04:53:21.417Z,82.37
2022-08-05T04:54:21.370Z,82.86
2022-08-05T04:55:59.998Z,82.86
2022-08-05T04:56:34.262Z,82.95
2022-08-05T04:57:21.532Z,83.44
2022-08-05T04:58:21.616Z,83.25
2022-08-05T04:59:23.906Z,83.05
2022-08-05T05:00:23.333Z,83.05
2022-08-05T05:02:06.139Z,82.66
2022-08-05T05:02:37.470Z,82.47
2022-08-05T05:03:20.951Z,82.57
2022-08-05T05:04:20.907Z,82.47
2022-08-05T05:05:28.891Z,82.47
2022-08-05T05:06:38.724Z,82.57
2022-08-05T05:07:29.443Z,82.66
2022-08-05T05:08:29.898Z,83.05
2022-08-05T05:09:20.671Z,83.15
2022-08-05T05:10:20.627Z,83.25
2022-08-05T05:11:20.579Z,83.05
2022-08-05T05:12:20.534Z,82.95
2022-08-05T05:13:20.485Z,82.95
2022-08-05T05:14:27.909Z,82.47
2022-08-05T05:15:54.341Z,82.37
2022-08-05T05:16:20.348Z,82.76
2022-08-05T05:17:24.206Z,82.95
2022-08-05T05:18:31.483Z,83.05
2022-08-05T05:19:23.586Z,83.05
2022-08-05T05:20:20.462Z,83.44
2022-08-05T05:21:20.112Z,83.34
2022-08-05T05:22:23.818Z,83.63
2022-08-05T05:23:20.282Z,83.44
2022-08-05T05:24:19.977Z,83.44
2022-08-05T05:25:19.927Z,83.44
2022-08-05T05:26:19.881Z,83.44
2022-08-05T05:27:19.833Z,83.63
2022-08-05T05:28:19.788Z,83.83
2022-08-05T05:29:19.740Z,83.73
2022-08-05T05:30:29.556Z,83.83
2022-08-05T05:31:19.648Z,83.73
2022-08-05T05:32:19.603Z,83.53
2022-08-05T05:33:23.466Z,83.44
2022-08-05T05:34:26.667Z,83.73
2022-08-05T05:35:20.149Z,83.44
2022-08-05T05:36:19.417Z,83.63
2022-08-05T05:37:19.370Z,83.83
2022-08-05T05:38:26.726Z,84.50
2022-08-05T05:39:19.496Z,84.41
2022-08-05T05:40:19.853Z,84.50
2022-08-05T05:41:19.183Z,84.31
2022-08-05T05:42:19.137Z,84.41
2022-08-05T05:43:22.067Z,83.73
2022-08-05T05:44:36.542Z,83.73
2022-08-05T05:45:18.996Z,84.50
2022-08-05T05:46:19.104Z,83.73
2022-08-05T05:47:21.751Z,84.11
2022-08-05T05:48:18.858Z,83.44
2022-08-05T05:49:22.983Z,83.53
2022-08-05T05:50:19.775Z,83.63
2022-08-05T05:51:18.718Z,84.41
2022-08-05T05:52:28.459Z,84.50
2022-08-05T05:53:21.059Z,84.31
2022-08-05T05:54:19.699Z,84.31
2022-08-05T05:55:18.534Z,84.31
2022-08-05T05:56:26.178Z,84.55
2022-08-05T05:57:18.987Z,84.45
2022-08-05T05:58:18.393Z,84.45
2022-08-05T05:59:18.350Z,84.45
2022-08-05T06:00:18.302Z,84.31
2022-08-05T06:01:18.271Z,84.93
2022-08-05T06:02:32.377Z,84.45
2022-08-05T06:03:40.772Z,84.55
2022-08-05T06:04:18.185Z,84.60
2022-08-05T06:05:20.392Z,84.45
2022-08-05T06:06:18.047Z,84.55
2022-08-05T06:07:17.980Z,85.13
2022-08-05T06:08:31.862Z,85.13
2022-08-05T06:09:24.819Z,85.61
2022-08-05T06:10:17.864Z,85.22
2022-08-05T06:11:17.789Z,84.83
2022-08-05T06:12:17.754Z,85.03
2022-08-05T06:13:17.694Z,85.51
2022-08-05T06:14:17.650Z,85.51
2022-08-05T06:15:24.211Z,85.31
2022-08-05T06:16:29.865Z,85.51
2022-08-05T06:17:24.362Z,85.41
2022-08-05T06:18:17.475Z,85.31
2022-08-05T06:19:34.967Z,84.83
2022-08-05T06:20:21.355Z,85.03
2022-08-05T06:21:18.778Z,85.31
2022-08-05T06:22:17.278Z,85.13
2022-08-05T06:23:17.231Z,85.03
2022-08-05T06:24:17.185Z,84.83
2022-08-05T06:25:25.281Z,84.55
2022-08-05T06:26:21.212Z,84.25
2022-08-05T06:28:09.218Z,84.64
2022-08-05T06:28:20.856Z,83.77
2022-08-05T06:29:23.782Z,83.48
2022-08-05T06:30:20.054Z,83.77
2022-08-05T06:31:17.849Z,83.96
2022-08-05T06:32:25.585Z,83.67
2022-08-05T06:33:19.444Z,83.58
2022-08-05T06:34:19.817Z,83.18
2022-08-05T06:36:03.108Z,82.55
2022-08-05T06:36:16.629Z,82.75
2022-08-05T06:37:16.674Z,83.23
2022-08-05T06:38:16.537Z,82.94
2022-08-05T06:39:16.519Z,83.13
2022-08-05T06:40:20.611Z,83.23
2022-08-05T06:41:16.396Z,83.03
2022-08-05T06:42:16.352Z,82.45
2022-08-05T06:43:57.507Z,83.23
2022-08-05T06:44:16.258Z,82.26
2022-08-05T06:45:21.189Z,82.75
2022-08-05T06:46:16.168Z,82.94
2022-08-05T06:47:30.236Z,82.17
2022-08-05T06:48:55.451Z,81.97
2022-08-05T06:49:16.028Z,81.77
2022-08-05T06:50:17.376Z,82.17
2022-08-05T06:51:23.736Z,82.17
2022-08-05T06:52:38.259Z,82.17
2022-08-05T06:53:27.657Z,81.87
2022-08-05T06:54:19.035Z,81.68
2022-08-05T06:55:15.750Z,81.77
2022-08-05T06:56:26.422Z,81.77
2022-08-05T06:58:02.231Z,81.68
2022-08-05T06:58:19.997Z,81.29
2022-08-05T06:59:15.567Z,81.77
2022-08-05T07:00:15.517Z,81.58
2022-08-05T07:01:15.535Z,81.77
2022-08-05T07:02:15.425Z,81.48
2022-08-05T07:03:15.380Z,81.58
2022-08-05T07:04:15.333Z,81.72
2022-08-05T07:05:18.715Z,81.72
2022-08-05T07:06:15.422Z,81.72
2022-08-05T07:07:15.296Z,81.23
2022-08-05T07:08:15.155Z,81.23
2022-08-05T07:09:15.104Z,81.33
2022-08-05T07:10:15.056Z,81.23
2022-08-05T07:11:15.765Z,81.52
2022-08-05T07:12:14.964Z,81.62
2022-08-05T07:13:14.917Z,80.75
2022-08-05T07:14:15.835Z,80.85
2022-08-05T07:15:33.995Z,80.94
2022-08-05T07:17:56.535Z,80.94
2022-08-05T07:17:59.947Z,80.65
2022-08-05T07:18:26.956Z,80.55
2022-08-05T07:19:16.045Z,80.55
2022-08-05T07:20:32.855Z,80.26
2022-08-05T07:21:14.552Z,80.17
2022-08-05T07:22:15.883Z,80.26
2022-08-05T07:23:26.123Z,79.97
2022-08-05T07:24:14.411Z,79.78
2022-08-05T07:25:54.489Z,80.07
2022-08-05T07:26:15.658Z,80.26
2022-08-05T07:27:14.273Z,80.07
2022-08-05T07:28:17.347Z,79.82
2022-08-05T07:29:14.181Z,79.97
2022-08-05T07:30:24.328Z,79.68
2022-08-05T07:31:14.090Z,79.78
2022-08-05T07:32:14.755Z,79.82
2022-08-05T07:33:15.946Z,79.24
2022-08-05T07:34:14.097Z,78.81
2022-08-05T07:35:55.995Z,79.14
2022-08-05T07:36:21.311Z,78.56
2022-08-05T07:37:13.813Z,79.24
2022-08-05T07:38:33.656Z,78.52
2022-08-05T07:39:24.754Z,78.75
2022-08-05T07:40:27.149Z,78.75
2022-08-05T07:42:08.166Z,78.56
2022-08-05T07:42:16.224Z,78.91
2022-08-05T07:43:20.458Z,78.75
2022-08-05T07:44:19.183Z,78.66
2022-08-05T07:45:13.446Z,78.94
2022-08-05T07:46:24.349Z,78.46
2022-08-05T07:47:20.316Z,78.36
2022-08-05T07:48:13.305Z,78.94
2022-08-05T07:49:13.265Z,78.66
2022-08-05T07:50:16.695Z,78.75
2022-08-05T07:51:23.814Z,78.46
2022-08-05T07:52:13.124Z,78.75
2022-08-05T07:53:13.305Z,78.66
2022-08-05T07:54:13.043Z,78.75
2022-08-05T07:55:15.833Z,78.66
2022-08-05T07:56:38.976Z,78.94
2022-08-05T07:57:17.891Z,78.56
2022-08-05T07:58:17.686Z,78.46
2022-08-05T07:59:12.802Z,78.36
2022-08-05T08:00:12.756Z,78.07
2022-08-05T08:01:12.748Z,77.59
2022-08-05T08:02:16.253Z,77.98
2022-08-05T08:03:15.075Z,77.39
2022-08-05T08:04:12.574Z,77.49
2022-08-05T08:05:12.528Z,76.81
2022-08-05T08:06:12.481Z,76.62
2022-08-05T08:07:12.446Z,77.20
2022-08-05T08:08:12.599Z,76.91
2022-08-05T08:09:12.344Z,77.01
2022-08-05T08:10:12.298Z,76.95
2022-08-05T08:11:15.908Z,76.91
2022-08-05T08:12:36.873Z,76.85
2022-08-05T08:13:12.162Z,76.95
2022-08-05T08:14:12.113Z,76.81
2022-08-05T08:15:15.648Z,76.95
2022-08-05T08:16:34.834Z,77.04
2022-08-05T08:17:15.750Z,76.17
2022-08-05T08:18:14.081Z,76.17
2022-08-05T08:20:10.034Z,76.56
2022-08-05T08:20:43.507Z,76.46
2022-08-05T08:21:17.761Z,76.17
2022-08-05T08:22:11.749Z,76.37
2022-08-05T08:24:03.779Z,76.37
2022-08-05T08:24:14.052Z,76.37
2022-08-05T08:25:16.080Z,76.37
2022-08-05T08:26:11.565Z,76.17
2022-08-05T08:27:11.521Z,76.56
2022-08-05T08:28:18.871Z,76.07
2022-08-05T08:30:04.175Z,75.78
2022-08-05T08:30:29.879Z,76.27
2022-08-05T08:31:14.592Z,76.46
2022-08-05T08:32:11.291Z,76.27
2022-08-05T08:33:13.560Z,75.49
2022-08-05T08:34:11.199Z,75.49
2022-08-05T08:35:13.362Z,75.49
2022-08-05T08:36:39.241Z,75.40
2022-08-05T08:37:11.063Z,75.01
2022-08-05T08:38:11.613Z,75.01
2022-08-05T08:39:15.719Z,75.10
2022-08-05T08:40:10.925Z,75.49
2022-08-05T08:41:10.884Z,75.01
2022-08-05T08:42:32.549Z,75.10
2022-08-05T08:45:16.916Z,74.71
2022-08-05T08:45:18.935Z,74.62
2022-08-05T08:45:22.720Z,74.91
2022-08-05T08:46:15.634Z,74.62
2022-08-05T08:47:46.853Z,74.81
2022-08-05T08:48:23.170Z,74.43
2022-08-05T08:50:23.341Z,74.91
2022-08-05T08:50:30.605Z,74.13
2022-08-05T08:52:01.829Z,74.91
2022-08-05T08:52:13.735Z,74.04
2022-08-05T08:53:12.133Z,73.84
2022-08-05T08:54:10.286Z,74.04
2022-08-05T08:55:13.071Z,73.94
2022-08-05T08:56:10.194Z,73.84
2022-08-05T08:57:11.286Z,73.84
2022-08-05T08:58:10.108Z,73.58
2022-08-05T08:59:14.882Z,73.16
2022-08-05T09:00:10.022Z,73.65
2022-08-05T09:01:15.429Z,73.07
2022-08-05T09:02:09.926Z,72.87
2022-08-05T09:03:09.880Z,73.00
2022-08-05T09:04:10.607Z,72.81
2022-08-05T09:05:17.301Z,73.10
2022-08-05T09:06:12.313Z,73.58
2022-08-05T09:07:19.297Z,73.00
2022-08-05T09:08:09.896Z,73.49
2022-08-05T09:09:09.605Z,73.39
2022-08-05T09:10:09.558Z,72.81
2022-08-05T09:11:12.168Z,72.23
2022-08-05T09:12:20.446Z,72.81
2022-08-05T09:13:09.426Z,72.71
2022-08-05T09:14:54.696Z,73.10
2022-08-05T09:15:09.340Z,72.52
2022-08-05T09:16:14.508Z,73.78
2022-08-05T09:17:09.507Z,73.58
2022-08-05T09:18:09.201Z,73.39
2022-08-05T09:19:09.150Z,73.58
2022-08-05T09:20:09.114Z,72.91
2022-08-05T09:21:11.454Z,72.71
2022-08-05T09:22:31.054Z,72.71
2022-08-05T09:23:09.465Z,72.81
2022-08-05T09:24:10.202Z,72.52
2022-08-05T09:25:14.064Z,72.33
2022-08-05T09:26:09.305Z,72.71
2022-08-05T09:27:08.787Z,72.42
2022-08-05T09:28:08.739Z,72.23
2022-08-05T09:29:08.995Z,72.81
2022-08-05T09:30:08.650Z,72.52
2022-08-05T09:31:22.614Z,72.23
2022-08-05T09:32:41.210Z,72.13
2022-08-05T09:33:08.513Z,72.42
2022-08-05T09:34:11.743Z,72.61
2022-08-05T09:35:08.423Z,72.61
2022-08-05T09:36:16.282Z,72.42
2022-08-05T09:37:15.287Z,72.42
2022-08-05T09:38:16.825Z,72.71
2022-08-05T09:39:18.562Z,72.52
2022-08-05T09:40:08.237Z,72.61
2022-08-05T09:41:08.233Z,72.23
2022-08-05T09:42:08.490Z,72.42
2022-08-05T09:43:08.542Z,72.33
2022-08-05T09:44:08.013Z,72.52
2022-08-05T09:46:05.045Z,72.23
2022-08-05T09:46:08.872Z,72.61
2022-08-05T09:47:10.483Z,72.42
2022-08-05T09:48:07.835Z,72.61
2022-08-05T09:49:19.493Z,72.42
2022-08-05T09:50:08.328Z,72.13
2022-08-05T09:51:15.202Z,72.13
2022-08-05T09:52:07.650Z,72.23
2022-08-05T09:53:09.126Z,72.33
2022-08-05T09:54:07.563Z,72.33
2022-08-05T09:55:59.054Z,72.23
2022-08-05T09:56:13.378Z,72.23
2022-08-05T09:57:23.407Z,72.13
2022-08-05T09:58:07.379Z,72.23
2022-08-05T09:59:07.336Z,72.36
2022-08-05T10:00:07.864Z,71.84
2022-08-05T10:01:15.196Z,72.27
2022-08-05T10:02:07.200Z,71.64
2022-08-05T10:03:07.210Z,71.84
2022-08-05T10:04:10.471Z,72.13
2022-08-05T10:05:07.892Z,72.03
2022-08-05T10:06:14.810Z,71.97
2022-08-05T10:07:20.774Z,72.13
2022-08-05T10:08:36.917Z,71.64
2022-08-05T10:09:06.884Z,72.23
2022-08-05T10:10:15.097Z,71.74
2022-08-05T10:11:06.794Z,71.94
2022-08-05T10:12:14.994Z,71.97
2022-08-05T10:13:09.708Z,71.94
2022-08-05T10:14:06.655Z,71.68
2022-08-05T10:15:06.614Z,72.27
2022-08-05T10:16:06.564Z,72.23
2022-08-05T10:17:06.520Z,72.03
2022-08-05T10:18:06.484Z,72.45
2022-08-05T10:19:09.381Z,72.36
2022-08-05T10:20:10.062Z,71.97
2022-08-05T10:21:11.877Z,72.17
2022-08-05T10:22:06.293Z,72.36
2022-08-05T10:23:08.827Z,72.36
2022-08-05T10:24:10.526Z,72.07
2022-08-05T10:25:07.517Z,72.17
2022-08-05T10:26:07.052Z,72.45
2022-08-05T10:27:07.591Z,72.36
2022-08-05T10:28:13.510Z,72.17
2022-08-05T10:29:05.978Z,72.27
2022-08-05T10:30:41.479Z,72.27
2022-08-05T10:32:54.067Z,72.36
2022-08-05T10:32:54.430Z,71.97
2022-08-05T10:33:06.195Z,72.36
2022-08-05T10:34:07.122Z,72.27
2022-08-05T10:35:06.889Z,71.39
2022-08-05T10:36:05.665Z,72.07
2022-08-05T10:37:05.617Z,71.68
2022-08-05T10:38:05.569Z,71.48
2022-08-05T10:39:11.833Z,71.58
2022-08-05T10:40:18.259Z,71.58
2022-08-05T10:41:05.549Z,71.58
2022-08-05T10:42:05.390Z,71.58
2022-08-05T10:43:05.346Z,71.58
2022-08-05T10:44:05.651Z,71.78
2022-08-05T10:45:21.457Z,71.58
2022-08-05T10:46:06.633Z,71.48
2022-08-05T10:47:05.167Z,71.58
2022-08-05T10:48:31.781Z,71.58
2022-08-05T10:49:10.041Z,71.20
2022-08-05T10:50:20.459Z,71.78
2022-08-05T10:51:04.987Z,71.68
2022-08-05T10:52:05.503Z,71.58
2022-08-05T10:53:04.895Z,71.29
2022-08-05T10:54:23.017Z,71.20
2022-08-05T10:55:04.814Z,71.58
2022-08-05T10:56:21.135Z,71.39
2022-08-05T10:57:04.713Z,71.39
2022-08-05T10:58:04.668Z,71.39
2022-08-05T10:59:12.410Z,71.29
2022-08-05T11:00:12.015Z,71.58
2022-08-05T11:01:04.534Z,71.39
2022-08-05T11:02:05.045Z,71.48
2022-08-05T11:03:23.410Z,71.03
2022-08-05T11:04:04.397Z,72.20
2022-08-05T11:05:04.354Z,72.17
2022-08-05T11:06:04.308Z,72.39
2022-08-05T11:07:04.265Z,71.72
2022-08-05T11:08:17.097Z,71.42
2022-08-05T11:09:04.175Z,71.23
2022-08-05T11:10:09.901Z,71.62
2022-08-05T11:11:09.736Z,71.13
2022-08-05T11:12:04.039Z,71.13
2022-08-05T11:13:04.014Z,71.33
2022-08-05T11:14:03.950Z,70.45
2022-08-05T11:15:19.327Z,70.45
2022-08-05T11:16:03.857Z,70.16
2022-08-05T11:17:53.356Z,70.45
2022-08-05T11:18:03.903Z,70.65
2022-08-05T11:20:09.359Z,70.16
2022-08-05T11:20:10.938Z,70.65
2022-08-05T11:21:11.431Z,70.36
2022-08-05T11:22:03.588Z,70.16
2022-08-05T11:23:08.825Z,70.06
2022-08-05T11:24:14.741Z,70.06
2022-08-05T11:26:03.171Z,69.87
2022-08-05T11:26:09.215Z,70.26
2022-08-05T11:27:03.362Z,70.06
2022-08-05T11:28:03.320Z,69.87
2022-08-05T11:29:11.514Z,70.36
2022-08-05T11:30:03.229Z,69.96
2022-08-05T11:31:06.329Z,70.16
2022-08-05T11:32:03.139Z,70.16
2022-08-05T11:33:03.092Z,69.96
2022-08-05T11:34:03.049Z,70.45
2022-08-05T11:35:03.006Z,69.96
2022-08-05T11:36:08.728Z,70.45
2022-08-05T11:37:02.913Z,70.06
2022-08-05T11:38:28.889Z,70.49
2022-08-05T11:39:02.870Z,70.16
2022-08-05T11:40:04.614Z,70.16
2022-08-05T11:41:34.349Z,69.87
2022-08-05T11:42:04.741Z,70.39
2022-08-05T11:43:02.645Z,69.87
2022-08-05T11:44:07.325Z,70.10
2022-08-05T11:45:02.561Z,69.61
2022-08-05T11:46:27.290Z,69.13
2022-08-05T11:47:11.260Z,68.74
2022-08-05T11:48:02.420Z,69.13
2022-08-05T11:49:02.373Z,69.42
2022-08-05T11:50:02.332Z,69.51
2022-08-05T11:51:02.285Z,69.13
2022-08-05T11:52:08.440Z,69.32
2022-08-05T11:53:02.194Z,68.84
2022-08-05T11:54:02.344Z,69.32
2022-08-05T11:55:07.362Z,68.90
2022-08-05T11:56:02.062Z,69.13
2022-08-05T11:57:02.015Z,68.44
2022-08-05T11:58:10.797Z,68.44
2022-08-05T11:59:01.926Z,68.25
2022-08-05T12:00:01.883Z,68.74
2022-08-05T12:01:01.835Z,68.74
2022-08-05T12:02:01.797Z,69.03
2022-08-05T12:03:01.815Z,69.22
2022-08-05T12:04:01.702Z,68.84
2022-08-05T12:05:08.028Z,68.93
2022-08-05T12:06:01.615Z,69.13
2022-08-05T12:07:01.820Z,68.93
2022-08-05T12:08:10.444Z,68.84
2022-08-05T12:09:01.477Z,69.03
2022-08-05T12:10:06.092Z,69.03
2022-08-05T12:11:05.570Z,69.03
2022-08-05T12:12:02.635Z,68.84
2022-08-05T12:13:01.297Z,68.84
2022-08-05T12:14:04.376Z,68.93
2022-08-05T12:15:01.210Z,69.03
2022-08-05T12:16:01.165Z,68.93
2022-08-05T12:17:01.545Z,68.93
2022-08-05T12:18:04.019Z,69.03
2022-08-05T12:19:01.031Z,68.84
2022-08-05T12:20:27.063Z,69.13
2022-08-05T12:21:00.942Z,69.13
2022-08-05T12:22:01.274Z,68.84
2022-08-05T12:23:00.853Z,68.93
2022-08-05T12:24:04.746Z,68.93
2022-08-05T12:25:00.770Z,69.13
2022-08-05T12:26:00.719Z,68.35
2022-08-05T12:27:00.679Z,68.44
2022-08-05T12:28:02.474Z,68.35
2022-08-05T12:29:01.531Z,68.15
2022-08-05T12:30:00.540Z,68.35
2022-08-05T12:31:02.454Z,67.96
2022-08-05T12:32:02.080Z,68.38
2022-08-05T12:33:07.505Z,68.29
2022-08-05T12:34:00.361Z,68.19
2022-08-05T12:35:00.318Z,68.09
2022-08-05T12:36:00.330Z,68.09
2022-08-05T12:37:00.228Z,68.38
2022-08-05T12:38:00.183Z,67.60
2022-08-05T12:39:00.238Z,68.38
2022-08-05T12:40:03.703Z,67.80
2022-08-05T12:41:00.050Z,67.80
2022-08-05T12:42:00.007Z,68.09
2022-08-05T12:42:59.960Z,67.90
2022-08-05T12:43:59.919Z,67.99
2022-08-05T12:44:59.870Z,68.57
2022-08-05T12:45:59.830Z,68.38
2022-08-05T12:46:59.784Z,68.48
2022-08-05T12:48:01.489Z,68.48
2022-08-05T12:48:59.692Z,68.19
2022-08-05T12:50:04.278Z,68.09
2022-08-05T12:50:59.604Z,67.50
2022-08-05T12:52:13.013Z,67.41